createdAt,value
2019-05-02T00:01:31.233Z,94181.66
2019-05-02T00:04:01.614Z,94172.73
2019-05-02T00:06:38.000Z,94177.14
2019-05-02T00:09:09.132Z,94165.47
2019-05-02T00:11:40.033Z,94168.73
2019-05-02T00:14:12.089Z,94173.61
2019-05-02T00:16:45.024Z,94181.56
2019-05-02T00:19:15.373Z,94183.06
2019-05-02T00:21:45.887Z,94174.31
2019-05-02T00:24:16.348Z,94171.50
2019-05-02T00:26:47.022Z,94168.93
2019-05-02T00:29:18.989Z,94165.84
2019-05-02T00:31:49.985Z,94172.17
2019-05-02T00:34:20.607Z,94174.49
2019-05-02T00:36:51.045Z,94181.28
2019-05-02T00:39:21.347Z,94175.41
2019-05-02T00:41:51.704Z,94174.89
2019-05-02T00:44:22.496Z,94178.73
2019-05-02T00:46:54.475Z,94177.44
2019-05-02T00:49:24.862Z,94188.13
2019-05-02T00:51:56.524Z,94177.42
2019-05-02T00:54:27.756Z,94186.55
2019-05-02T00:56:58.547Z,94186.51
2019-05-02T00:59:28.925Z,94182.83
2019-05-02T01:02:15.530Z,94187.09
2019-05-02T01:04:47.255Z,94189.52
2019-05-02T01:07:20.268Z,94185.52
2019-05-02T01:09:49.587Z,94190.81
2019-05-02T01:12:26.637Z,94185.38
2019-05-02T01:14:52.539Z,94182.03
2019-05-02T01:17:26.156Z,94175.38
2019-05-02T01:19:55.247Z,94181.52
2019-05-02T01:22:25.854Z,94179.94
2019-05-02T01:24:56.240Z,94178.16
2019-05-02T01:27:48.755Z,94168.91
2019-05-02T01:30:42.304Z,94179.38
2019-05-02T01:33:36.872Z,94172.53
2019-05-02T01:36:11.013Z,94171.80
2019-05-02T01:38:44.702Z,94168.95
2019-05-02T01:41:15.419Z,94174.38
2019-05-02T01:43:46.223Z,94174.06
2019-05-02T01:46:17.030Z,94173.36
2019-05-02T01:48:49.196Z,94167.28
2019-05-02T01:51:19.986Z,94169.37
2019-05-02T01:53:50.311Z,94171.55
2019-05-02T01:56:20.774Z,94167.41
2019-05-02T01:58:52.949Z,94176.09
2019-05-02T02:01:23.620Z,94174.05
2019-05-02T02:03:53.927Z,94184.66
2019-05-02T02:06:24.736Z,94174.83
2019-05-02T02:08:55.003Z,94175.49
2019-05-02T02:11:28.404Z,94176.93
2019-05-02T02:14:00.081Z,94173.84
2019-05-02T02:16:30.505Z,94173.77
2019-05-02T02:19:11.352Z,94175.94
2019-05-02T02:22:10.106Z,94172.50
2019-05-02T02:24:44.129Z,94170.20
2019-05-02T02:27:14.492Z,94173.33
2019-05-02T02:29:45.365Z,94175.39
2019-05-02T02:32:20.026Z,94183.56
2019-05-02T02:34:48.175Z,94183.80
2019-05-02T02:37:19.642Z,94185.34
2019-05-02T02:39:54.013Z,94184.23
2019-05-02T02:42:24.988Z,94185.11
2019-05-02T02:45:18.470Z,94181.11
2019-05-02T02:47:44.744Z,94177.98
2019-05-02T02:50:15.757Z,94181.74
2019-05-02T02:52:47.125Z,94176.37
2019-05-02T02:55:22.564Z,94177.83
2019-05-02T02:57:49.862Z,94180.71
2019-05-02T03:00:20.661Z,94180.31
2019-05-02T03:02:50.963Z,94179.41
2019-05-02T03:05:26.315Z,94176.13
2019-05-02T03:07:53.540Z,94186.55
2019-05-02T03:10:24.353Z,94185.92
2019-05-02T03:13:28.592Z,94183.16
2019-05-02T03:16:00.430Z,94186.41
2019-05-02T03:18:39.845Z,94177.78
2019-05-02T03:21:05.371Z,94187.17
2019-05-02T03:23:35.701Z,94195.04
2019-05-02T03:26:07.808Z,94185.97
2019-05-02T03:28:38.614Z,94192.95
2019-05-02T03:31:24.178Z,94201.92
2019-05-02T03:33:54.437Z,94208.29
2019-05-02T03:36:29.593Z,94202.84
2019-05-02T03:38:47.042Z,94208.37
2019-05-02T03:41:20.711Z,94204.11
2019-05-02T03:43:50.605Z,94211.69
2019-05-02T03:46:22.711Z,94209.16
2019-05-02T03:49:05.808Z,94213.08
2019-05-02T03:51:26.641Z,94217.55
2019-05-02T03:54:06.480Z,94218.57
2019-05-02T03:56:29.361Z,94231.69
2019-05-02T03:58:59.854Z,94006.84
2019-05-02T04:01:34.748Z,94230.16
2019-05-02T04:04:04.559Z,94230.70
2019-05-02T04:06:36.176Z,94232.36
2019-05-02T04:09:08.466Z,94230.47
2019-05-02T04:11:40.890Z,94237.30
2019-05-02T04:14:17.445Z,94242.00
2019-05-02T04:16:48.496Z,94242.00
2019-05-02T04:19:15.885Z,94245.47
2019-05-02T04:21:51.235Z,94238.71
2019-05-02T04:24:20.231Z,94233.25
2019-05-02T04:26:56.085Z,94246.54
2019-05-02T04:29:30.408Z,94256.09
2019-05-02T04:31:56.435Z,94261.13
2019-05-02T04:34:27.265Z,94250.31
2019-05-02T04:37:01.099Z,94260.06
2019-05-02T04:39:29.667Z,94255.50
2019-05-02T04:42:09.365Z,94253.50
2019-05-02T04:44:40.883Z,94258.11
2019-05-02T04:47:13.832Z,94262.30
2019-05-02T04:49:39.150Z,94265.50
2019-05-02T04:52:12.334Z,94269.66
2019-05-02T04:54:41.514Z,94286.00
2019-05-02T04:57:11.773Z,94267.96
2019-05-02T04:59:42.191Z,94274.73
2019-05-02T05:02:12.876Z,94277.45
2019-05-02T05:04:48.712Z,94273.97
2019-05-02T05:07:17.635Z,94274.09
2019-05-02T05:09:56.986Z,94279.25
2019-05-02T05:12:19.552Z,94280.05
2019-05-02T05:14:51.617Z,94280.86
2019-05-02T05:17:32.733Z,94289.97
2019-05-02T05:20:00.040Z,94283.14
2019-05-02T05:22:29.924Z,94293.04
2019-05-02T05:25:07.472Z,94301.88
2019-05-02T05:27:37.890Z,94292.22
2019-05-02T05:30:15.236Z,94295.72
2019-05-02T05:32:40.641Z,94279.22
2019-05-02T05:35:12.969Z,94288.15
2019-05-02T05:37:51.507Z,94286.63
2019-05-02T05:40:17.699Z,94295.80
2019-05-02T05:42:48.210Z,94288.88
2019-05-02T05:45:18.703Z,94282.89
2019-05-02T05:47:52.406Z,94312.16
2019-05-02T05:50:21.105Z,94299.02
2019-05-02T05:52:51.926Z,94291.34
2019-05-02T05:55:24.347Z,94300.59
2019-05-02T05:58:00.497Z,94298.52
2019-05-02T06:00:27.965Z,94293.34
2019-05-02T06:03:10.179Z,94310.32
2019-05-02T06:05:36.192Z,94303.51
2019-05-02T06:08:03.194Z,94316.28
2019-05-02T06:10:33.489Z,94310.26
2019-05-02T06:13:05.335Z,94307.41
2019-05-02T06:15:39.051Z,94318.66
2019-05-02T06:18:08.415Z,94312.16
2019-05-02T06:20:38.795Z,94311.93
2019-05-02T06:23:09.219Z,94318.71
2019-05-02T06:25:42.366Z,94314.59
2019-05-02T06:28:11.525Z,94313.75
2019-05-02T06:30:42.191Z,94318.48
2019-05-02T06:33:12.476Z,94322.91
2019-05-02T06:35:42.812Z,94317.15
2019-05-02T06:38:13.516Z,94307.23
2019-05-02T06:40:46.644Z,94305.97
2019-05-02T06:43:17.065Z,94308.58
2019-05-02T06:45:47.657Z,94306.50
2019-05-02T06:48:19.091Z,94311.25
2019-05-02T06:50:50.778Z,94316.48
2019-05-02T06:53:21.495Z,94332.72
2019-05-02T06:55:51.778Z,94325.63
2019-05-02T06:58:22.258Z,94312.02
2019-05-02T07:00:58.308Z,94302.84
2019-05-02T07:03:27.514Z,94299.42
2019-05-02T07:05:58.662Z,94325.11
2019-05-02T07:08:30.005Z,94314.84
2019-05-02T07:11:01.553Z,94320.08
2019-05-02T07:13:36.347Z,94310.16
2019-05-02T07:16:37.524Z,94319.51
2019-05-02T07:18:58.909Z,94316.13
2019-05-02T07:21:29.382Z,94321.06
2019-05-02T07:24:00.129Z,94309.95
2019-05-02T07:26:30.510Z,94310.55
2019-05-02T07:29:01.173Z,94312.12
2019-05-02T07:31:31.511Z,94327.19
2019-05-02T07:34:01.892Z,94315.42
2019-05-02T07:36:36.473Z,94311.80
2019-05-02T07:39:06.768Z,94317.45
2019-05-02T07:41:37.412Z,94348.82
2019-05-02T07:44:08.121Z,94322.08
2019-05-02T07:46:51.219Z,94310.91
2019-05-02T07:49:10.545Z,94324.86
2019-05-02T07:51:41.385Z,94323.13
2019-05-02T07:54:11.865Z,94313.08
2019-05-02T07:56:42.173Z,94303.28
2019-05-02T07:59:12.959Z,94312.66
2019-05-02T08:01:44.867Z,94319.80
2019-05-02T08:04:15.851Z,94304.34
2019-05-02T08:06:46.451Z,94329.09
2019-05-02T08:09:16.956Z,94334.20
2019-05-02T08:11:47.840Z,94321.94
2019-05-02T08:14:18.187Z,94305.69
2019-05-02T08:16:48.500Z,94314.98
2019-05-02T08:19:19.161Z,94315.95
2019-05-02T08:21:50.527Z,94305.80
2019-05-02T08:24:20.817Z,94313.59
2019-05-02T08:27:16.622Z,94309.17
2019-05-02T08:29:47.237Z,94316.27
2019-05-02T08:32:17.580Z,94317.49
2019-05-02T08:34:52.050Z,94304.82
2019-05-02T08:37:22.418Z,94314.42
2019-05-02T08:39:52.395Z,94313.53
2019-05-02T08:42:27.778Z,94324.17
2019-05-02T08:45:01.118Z,94338.35
2019-05-02T08:47:30.574Z,94304.44
2019-05-02T08:50:01.090Z,94311.05
2019-05-02T08:52:31.851Z,94327.69
2019-05-02T08:55:04.301Z,94338.99
2019-05-02T08:57:36.087Z,94337.32
2019-05-02T09:00:09.013Z,94325.48
2019-05-02T09:02:41.473Z,94325.71
2019-05-02T09:05:12.237Z,94322.03
2019-05-02T09:07:43.193Z,94312.64
2019-05-02T09:10:13.990Z,94314.20
2019-05-02T09:12:45.572Z,94336.45
2019-05-02T09:15:17.037Z,94323.23
2019-05-02T09:17:54.791Z,94311.06
2019-05-02T09:20:21.471Z,94300.20
2019-05-02T09:22:55.994Z,94318.99
2019-05-02T09:25:24.754Z,94304.78
2019-05-02T09:27:55.401Z,94313.59
2019-05-02T09:30:26.260Z,94310.61
2019-05-02T09:32:57.312Z,94297.61
2019-05-02T09:35:30.141Z,94294.48
2019-05-02T09:38:01.772Z,94295.02
2019-05-02T09:40:32.437Z,94299.33
2019-05-02T09:43:04.812Z,94294.56
2019-05-02T09:45:37.370Z,94306.27
2019-05-02T09:48:08.266Z,94288.91
2019-05-02T09:50:41.976Z,94305.50
2019-05-02T09:53:20.361Z,94288.83
2019-05-02T09:55:50.332Z,94304.36
2019-05-02T09:58:21.301Z,94288.27
2019-05-02T10:01:01.977Z,94286.67
2019-05-02T10:03:32.903Z,94280.65
2019-05-02T10:06:03.610Z,94258.12
2019-05-02T10:08:38.204Z,94284.27
2019-05-02T10:11:06.634Z,94281.62
2019-05-02T10:13:36.975Z,94281.77
2019-05-02T10:16:07.602Z,94270.69
2019-05-02T10:18:38.110Z,94286.63
2019-05-02T10:21:13.447Z,94286.97
2019-05-02T10:23:42.737Z,94283.33
2019-05-02T10:26:19.810Z,94262.02
2019-05-02T10:28:49.597Z,94268.36
2019-05-02T10:31:17.737Z,94268.36
2019-05-02T10:33:48.443Z,94264.52
2019-05-02T10:36:19.881Z,94250.72
2019-05-02T10:38:54.915Z,94273.39
2019-05-02T10:41:23.326Z,94271.34
2019-05-02T10:43:56.652Z,94254.20
2019-05-02T10:46:38.011Z,94254.20
2019-05-02T10:49:27.349Z,94250.77
2019-05-02T10:51:57.791Z,94252.34
2019-05-02T10:54:32.941Z,94240.69
2019-05-02T10:57:02.291Z,94238.73
2019-05-02T10:59:33.241Z,94242.02
2019-05-02T11:02:22.808Z,94244.30
2019-05-02T11:04:56.864Z,94242.02
2019-05-02T11:07:27.278Z,94238.59
2019-05-02T11:10:03.247Z,94237.50
2019-05-02T11:12:46.668Z,94241.09
2019-05-02T11:15:33.016Z,94234.98
2019-05-02T11:18:05.224Z,94237.86
2019-05-02T11:20:36.027Z,94237.86
2019-05-02T11:23:06.467Z,94234.13
2019-05-02T11:25:36.832Z,94240.73
2019-05-02T11:28:07.433Z,94241.67
2019-05-02T11:30:39.017Z,94013.17
2019-05-02T11:33:09.418Z,94238.22
2019-05-02T11:35:41.704Z,94233.82
2019-05-02T11:38:25.532Z,94233.05
2019-05-02T11:40:44.193Z,94236.18
2019-05-02T11:43:14.599Z,94228.41
2019-05-02T11:45:44.927Z,94230.34
2019-05-02T11:48:15.226Z,94225.40
2019-05-02T11:50:45.544Z,94240.97
2019-05-02T11:53:24.841Z,94230.97
2019-05-02T11:55:48.040Z,94229.25
2019-05-02T11:58:18.325Z,94229.56
2019-05-02T12:00:49.781Z,94226.96
2019-05-02T12:03:45.265Z,94236.57
2019-05-02T12:06:19.564Z,94223.38
2019-05-02T12:08:49.459Z,94215.77
2019-05-02T12:11:22.587Z,94221.59
2019-05-02T12:13:56.959Z,94215.46
2019-05-02T12:16:25.690Z,94217.63
2019-05-02T12:19:08.550Z,94224.48
2019-05-02T12:21:29.396Z,94221.30
2019-05-02T12:24:01.646Z,94211.69
2019-05-02T12:26:32.584Z,94214.25
2019-05-02T12:29:02.955Z,94218.47
2019-05-02T12:31:33.985Z,94205.72
2019-05-02T12:34:06.398Z,94213.33
2019-05-02T12:36:37.435Z,94221.58
2019-05-02T12:39:08.360Z,94214.17
2019-05-02T12:41:39.192Z,94212.06
2019-05-02T12:44:11.712Z,94214.38
2019-05-02T12:46:42.871Z,94214.89
2019-05-02T12:49:24.791Z,94203.34
2019-05-02T12:51:46.685Z,94213.41
2019-05-02T12:54:17.371Z,94221.01
2019-05-02T12:56:48.066Z,94216.48
2019-05-02T12:59:18.477Z,94215.24
2019-05-02T13:01:49.412Z,94242.38
2019-05-02T13:04:20.116Z,94228.91
2019-05-02T13:06:52.859Z,94216.54
2019-05-02T13:09:23.538Z,94206.88
2019-05-02T13:12:14.231Z,94214.83
2019-05-02T13:14:44.975Z,94202.61
2019-05-02T13:17:16.149Z,94211.13
2019-05-02T13:19:55.531Z,94185.37
2019-05-02T13:22:36.357Z,94202.42
2019-05-02T13:25:14.288Z,94204.98
2019-05-02T13:27:48.146Z,94202.28
2019-05-02T13:30:46.376Z,94205.86
2019-05-02T13:33:22.721Z,94203.26
2019-05-02T13:35:56.593Z,94196.81
2019-05-02T13:38:27.772Z,94208.95
2019-05-02T13:40:58.666Z,94199.94
2019-05-02T13:43:34.574Z,94196.09
2019-05-02T13:46:22.149Z,94193.37
2019-05-02T13:48:52.971Z,94193.56
2019-05-02T13:51:24.155Z,94206.25
2019-05-02T13:54:02.391Z,94199.80
2019-05-02T13:56:52.696Z,94196.02
2019-05-02T13:59:24.191Z,94194.28
2019-05-02T14:01:55.787Z,94177.02
2019-05-02T14:04:27.171Z,94220.78
2019-05-02T14:06:58.113Z,94181.00
2019-05-02T14:09:57.956Z,94199.23
2019-05-02T14:12:56.332Z,94185.41
2019-05-02T14:15:32.498Z,94176.16
2019-05-02T14:18:03.618Z,94176.17
2019-05-02T14:20:37.267Z,94189.38
2019-05-02T14:23:07.607Z,94156.13
2019-05-02T14:25:38.554Z,94173.06
2019-05-02T14:28:09.106Z,94174.91
2019-05-02T14:30:43.601Z,94171.27
2019-05-02T14:33:19.421Z,94157.80
2019-05-02T14:35:52.584Z,94180.13
2019-05-02T14:38:24.049Z,94172.23
2019-05-02T14:41:06.707Z,94178.39
2019-05-02T14:43:53.213Z,94165.00
2019-05-02T14:46:34.024Z,94173.45
2019-05-02T14:49:00.098Z,94160.30
2019-05-02T14:51:32.747Z,94174.52
2019-05-02T14:54:08.097Z,94175.34
2019-05-02T14:57:01.995Z,94167.28
2019-05-02T14:59:33.073Z,94171.82
2019-05-02T15:02:07.744Z,94175.91
2019-05-02T15:04:44.433Z,94170.48
2019-05-02T15:07:12.967Z,94178.43
2019-05-02T15:09:43.916Z,94191.44
2019-05-02T15:12:18.964Z,94195.17
2019-05-02T15:14:54.024Z,94185.07
2019-05-02T15:17:22.738Z,94180.68
2019-05-02T15:19:53.613Z,94177.15
2019-05-02T15:22:27.508Z,94181.30
2019-05-02T15:24:57.075Z,94207.51
2019-05-02T15:27:39.384Z,94184.42
2019-05-02T15:30:05.556Z,94189.36
2019-05-02T15:32:44.943Z,94186.28
2019-05-02T15:35:27.843Z,94195.89
2019-05-02T15:38:02.640Z,94187.06
2019-05-02T15:43:09.018Z,94185.84
2019-05-02T15:45:36.765Z,94191.05
2019-05-02T15:48:07.567Z,94185.11
2019-05-02T15:50:48.748Z,94185.98
2019-05-02T15:53:23.675Z,94193.14
2019-05-02T15:55:54.651Z,94190.58
2019-05-02T15:58:27.855Z,94180.19
2019-05-02T16:01:12.037Z,94182.55
2019-05-02T16:03:46.173Z,94185.25
2019-05-02T16:06:21.068Z,94184.09
2019-05-02T16:08:51.766Z,94191.13
2019-05-02T16:11:23.037Z,94190.77
2019-05-02T16:13:56.209Z,94187.36
2019-05-02T16:16:27.050Z,94179.06
2019-05-02T16:18:57.989Z,94191.74
2019-05-02T16:21:43.624Z,94194.23
2019-05-02T16:24:23.014Z,94196.37
2019-05-02T16:26:57.184Z,94195.17
2019-05-02T16:29:29.134Z,94185.97
2019-05-02T16:32:22.219Z,94194.72
2019-05-02T16:34:55.800Z,94198.35
2019-05-02T16:37:26.907Z,94193.94
2019-05-02T16:39:58.425Z,94199.83
2019-05-02T16:42:29.848Z,94211.36
2019-05-02T16:45:02.658Z,94225.29
2019-05-02T16:47:33.332Z,94208.33
2019-05-02T16:50:04.664Z,94204.12
2019-05-02T16:52:38.027Z,94218.64
2019-05-02T16:55:15.127Z,94226.70
2019-05-02T16:57:44.326Z,94219.14
2019-05-02T17:00:19.597Z,94228.34
2019-05-02T17:02:50.906Z,94221.23
2019-05-02T17:05:22.264Z,94229.87
2019-05-02T17:08:02.119Z,94228.98
2019-05-02T17:10:54.564Z,94238.73
2019-05-02T17:13:27.327Z,94240.22
2019-05-02T17:15:56.237Z,94243.80
2019-05-02T17:18:27.692Z,94248.47
2019-05-02T17:20:59.420Z,94241.70
2019-05-02T17:23:37.534Z,94259.98
2019-05-02T17:26:06.249Z,94253.09
2019-05-02T17:28:37.961Z,94261.85
2019-05-02T17:31:10.766Z,94263.20
2019-05-02T17:33:46.174Z,94268.48
2019-05-02T17:36:23.360Z,94268.14
2019-05-02T17:38:53.890Z,94273.15
2019-05-02T17:41:22.739Z,94272.16
2019-05-02T17:43:57.535Z,94270.31
2019-05-02T17:46:27.178Z,94269.61
2019-05-02T17:48:57.959Z,94270.52
2019-05-02T17:51:37.845Z,94276.34
2019-05-02T17:54:09.195Z,94277.16
2019-05-02T17:56:39.525Z,94276.58
2019-05-02T17:59:11.691Z,94273.89
2019-05-02T18:01:42.376Z,94282.09
2019-05-02T18:04:16.379Z,94276.27
2019-05-02T18:06:46.809Z,94272.47
2019-05-02T18:09:17.937Z,94271.80
2019-05-02T18:11:48.350Z,94283.67
2019-05-02T18:14:21.195Z,94282.58
2019-05-02T18:16:51.892Z,94280.86
2019-05-02T18:19:24.544Z,94280.95
2019-05-02T18:21:58.137Z,94280.53
2019-05-02T18:24:26.950Z,94288.09
2019-05-02T18:26:57.505Z,94293.44
2019-05-02T18:29:27.937Z,94291.30
2019-05-02T18:31:58.468Z,94299.66
2019-05-02T18:34:28.875Z,94298.74
2019-05-02T18:37:03.005Z,94299.56
2019-05-02T18:39:34.918Z,94307.16
2019-05-02T18:42:03.719Z,94303.56
2019-05-02T18:44:34.019Z,94309.05
2019-05-02T18:47:04.621Z,94315.05
2019-05-02T18:49:35.224Z,94316.36
2019-05-02T18:52:05.886Z,94320.56
2019-05-02T18:54:38.604Z,94321.81
2019-05-02T18:57:09.580Z,94321.12
2019-05-02T18:59:39.879Z,94327.68
2019-05-02T19:02:10.723Z,94332.17
2019-05-02T19:04:42.339Z,94340.28
2019-05-02T19:07:15.833Z,94339.12
2019-05-02T19:09:50.959Z,94335.98
2019-05-02T19:12:22.439Z,94344.15
2019-05-02T19:14:49.433Z,94291.81
2019-05-02T19:17:21.945Z,94347.88
2019-05-02T19:19:52.736Z,94349.98
2019-05-02T19:22:23.085Z,94353.14
2019-05-02T19:24:53.800Z,94352.33
2019-05-02T19:27:42.946Z,94356.80
2019-05-02T19:30:13.691Z,94349.23
2019-05-02T19:32:44.203Z,94345.04
2019-05-02T19:35:15.133Z,94353.42
2019-05-02T19:37:47.755Z,94358.39
2019-05-02T19:40:26.887Z,94364.94
2019-05-02T19:42:57.326Z,94369.13
2019-05-02T19:45:25.103Z,94357.08
2019-05-02T19:47:57.677Z,94364.14
2019-05-02T19:50:43.770Z,94360.48
2019-05-02T19:53:17.938Z,94354.72
2019-05-02T19:55:45.271Z,94358.38
2019-05-02T19:58:16.143Z,94366.27
2019-05-02T20:00:46.587Z,94362.05
2019-05-02T20:03:21.883Z,94367.03
2019-05-02T20:05:51.787Z,94379.36
2019-05-02T20:08:24.592Z,94371.23
2019-05-02T20:10:58.312Z,94371.50
2019-05-02T20:13:29.663Z,94372.80
2019-05-02T20:16:05.901Z,94369.39
2019-05-02T20:18:42.389Z,94375.17
2019-05-02T20:21:27.242Z,94376.47
2019-05-02T20:23:52.150Z,94371.51
2019-05-02T20:26:22.603Z,94371.74
2019-05-02T20:28:53.462Z,94374.13
2019-05-02T20:31:24.720Z,94369.66
2019-05-02T20:33:55.767Z,94365.20
2019-05-02T20:36:26.056Z,94369.39
2019-05-02T20:38:56.456Z,94362.58
2019-05-02T20:41:27.175Z,94359.17
2019-05-02T20:43:57.494Z,94358.91
2019-05-02T20:46:28.064Z,94365.42
2019-05-02T20:48:58.941Z,94360.22
2019-05-02T20:51:29.310Z,94364.84
2019-05-02T20:54:01.557Z,94358.30
2019-05-02T20:56:32.199Z,94363.26
2019-05-02T20:59:02.575Z,94361.22
2019-05-02T21:01:32.960Z,94360.41
2019-05-02T21:04:03.660Z,94360.94
2019-05-02T21:06:46.297Z,94357.02
2019-05-02T21:09:35.872Z,94350.73
2019-05-02T21:12:07.533Z,94353.31
2019-05-02T21:14:37.927Z,94358.30
2019-05-02T21:17:08.574Z,94367.75
2019-05-02T21:19:39.045Z,94352.58
2019-05-02T21:22:15.956Z,94360.74
2019-05-02T21:24:46.650Z,94363.36
2019-05-02T21:27:17.171Z,94365.97
2019-05-02T21:29:47.500Z,94366.77
2019-05-02T21:32:18.243Z,94362.53
2019-05-02T21:34:48.620Z,94373.50
2019-05-02T21:37:19.004Z,94372.78
2019-05-02T21:39:49.318Z,94380.37
2019-05-02T21:42:19.746Z,94375.34
2019-05-02T21:44:52.067Z,94373.23
2019-05-02T21:47:22.676Z,94378.69
2019-05-02T21:50:05.730Z,94375.55
2019-05-02T21:52:52.568Z,94382.36
2019-05-02T21:55:45.319Z,94378.70
2019-05-02T21:58:15.619Z,94382.34
2019-05-02T22:00:55.433Z,94382.65
2019-05-02T22:03:27.575Z,94391.83
2019-05-02T22:05:57.888Z,94386.91
2019-05-02T22:08:29.595Z,94393.93
2019-05-02T22:11:00.962Z,94392.06
2019-05-02T22:13:31.712Z,94386.84
2019-05-02T22:16:02.430Z,94390.00
2019-05-02T22:18:32.675Z,94384.23
2019-05-02T22:21:03.770Z,94388.45
2019-05-02T22:23:34.463Z,94384.48
2019-05-02T22:26:04.794Z,94391.25
2019-05-02T22:28:35.372Z,94393.36
2019-05-02T22:31:06.126Z,94388.59
2019-05-02T22:33:36.413Z,94388.05
2019-05-02T22:36:06.770Z,94390.00
2019-05-02T22:39:02.238Z,94389.22
2019-05-02T22:41:34.165Z,94393.46
2019-05-02T22:44:04.941Z,94395.78
2019-05-02T22:46:43.444Z,94402.05
2019-05-02T22:49:15.087Z,94393.64
2019-05-02T22:51:46.036Z,94401.19
2019-05-02T22:54:26.840Z,94400.89
2019-05-02T22:56:49.441Z,94403.17
2019-05-02T22:59:23.732Z,94404.36
2019-05-02T23:01:52.730Z,94402.77
2019-05-02T23:04:23.667Z,94393.44
2019-05-02T23:06:55.173Z,94398.59
2019-05-02T23:09:25.614Z,94390.94
2019-05-02T23:11:55.939Z,94391.36
2019-05-02T23:14:26.645Z,94383.84
2019-05-02T23:16:57.065Z,94381.03
2019-05-02T23:19:27.769Z,94384.29
2019-05-02T23:21:59.220Z,94379.49
2019-05-02T23:24:47.402Z,94378.66
2019-05-02T23:27:24.884Z,94388.19
2019-05-02T23:29:55.428Z,94384.60
2019-05-02T23:32:25.773Z,94386.45
2019-05-02T23:34:56.430Z,94383.33
2019-05-02T23:37:26.850Z,94378.66
2019-05-02T23:39:57.236Z,94381.48
2019-05-02T23:42:28.704Z,94380.32
2019-05-02T23:44:59.524Z,94389.52
2019-05-02T23:47:29.852Z,94392.26
2019-05-02T23:50:00.271Z,94396.78
2019-05-02T23:52:31.614Z,94393.67
2019-05-02T23:55:02.977Z,94391.22
2019-05-02T23:57:33.446Z,94391.28
